sensor_id;sensor_type;location;lat;lon;timestamp;pressure;altitude;pressure_sealevel;temperature
67353;BMP180;54238;52.278;21.056;2024-02-26T00:00:13;99565.20;;;9.00
67353;BMP180;54238;52.278;21.056;2024-02-26T00:03:06;99566.40;;;9.00
67353;BMP180;54238;52.278;21.056;2024-02-26T00:05:35;99566.40;;;9.00
67353;BMP180;54238;52.278;21.056;2024-02-26T00:08:05;99571.20;;;8.98
67353;BMP180;54238;52.278;21.056;2024-02-26T00:10:32;99576.00;;;8.90
67353;BMP180;54238;52.278;21.056;2024-02-26T00:13:04;99577.20;;;8.90
67353;BMP180;54238;52.278;21.056;2024-02-26T00:15:33;99570.00;;;8.90
67353;BMP180;54238;52.278;21.056;2024-02-26T00:18:04;99561.00;;;8.80
67353;BMP180;54238;52.278;21.056;2024-02-26T00:20:36;99548.20;;;8.80
67353;BMP180;54238;52.278;21.056;2024-02-26T00:23:11;99550.60;;;8.80
67353;BMP180;54238;52.278;21.056;2024-02-26T00:25:46;99560.60;;;8.80
67353;BMP180;54238;52.278;21.056;2024-02-26T00:28:15;99575.80;;;8.80
67353;BMP180;54238;52.278;21.056;2024-02-26T00:30:42;99572.80;;;8.78
67353;BMP180;54238;52.278;21.056;2024-02-26T00:33:11;99568.00;;;8.70
67353;BMP180;54238;52.278;21.056;2024-02-26T00:35:41;99564.60;;;8.70
67353;BMP180;54238;52.278;21.056;2024-02-26T00:38:08;99566.40;;;8.60
67353;BMP180;54238;52.278;21.056;2024-02-26T00:40:35;99562.00;;;8.60
67353;BMP180;54238;52.278;21.056;2024-02-26T00:43:06;99559.40;;;8.50
67353;BMP180;54238;52.278;21.056;2024-02-26T00:45:33;99555.00;;;8.50
67353;BMP180;54238;52.278;21.056;2024-02-26T00:48:00;99551.80;;;8.40
67353;BMP180;54238;52.278;21.056;2024-02-26T00:50:34;99547.40;;;8.40
67353;BMP180;54238;52.278;21.056;2024-02-26T00:53:04;99543.20;;;8.34
67353;BMP180;54238;52.278;21.056;2024-02-26T00:55:35;99541.80;;;8.30
67353;BMP180;54238;52.278;21.056;2024-02-26T00:58:02;99545.20;;;8.30
67353;BMP180;54238;52.278;21.056;2024-02-26T01:00:29;99540.80;;;8.20
67353;BMP180;54238;52.278;21.056;2024-02-26T01:02:58;99537.80;;;8.20
67353;BMP180;54238;52.278;21.056;2024-02-26T01:05:27;99541.20;;;8.20
67353;BMP180;54238;52.278;21.056;2024-02-26T01:07:59;99540.40;;;8.20
67353;BMP180;54238;52.278;21.056;2024-02-26T01:10:26;99544.00;;;8.14
67353;BMP180;54238;52.278;21.056;2024-02-26T01:12:55;99541.80;;;8.10
67353;BMP180;54238;52.278;21.056;2024-02-26T01:15:24;99542.20;;;8.10
67353;BMP180;54238;52.278;21.056;2024-02-26T01:17:54;99541.20;;;8.10
67353;BMP180;54238;52.278;21.056;2024-02-26T01:20:23;99539.40;;;8.10
67353;BMP180;54238;52.278;21.056;2024-02-26T01:22:58;99539.80;;;8.08
67353;BMP180;54238;52.278;21.056;2024-02-26T01:25:24;99533.60;;;8.00
67353;BMP180;54238;52.278;21.056;2024-02-26T01:27:59;99533.60;;;8.00
67353;BMP180;54238;52.278;21.056;2024-02-26T01:30:28;99531.60;;;8.00
67353;BMP180;54238;52.278;21.056;2024-02-26T01:32:57;99530.80;;;8.00
67353;BMP180;54238;52.278;21.056;2024-02-26T01:35:28;99532.40;;;8.00
67353;BMP180;54238;52.278;21.056;2024-02-26T01:37:56;99528.40;;;8.00
67353;BMP180;54238;52.278;21.056;2024-02-26T01:40:29;99535.60;;;7.92
67353;BMP180;54238;52.278;21.056;2024-02-26T01:43:04;99543.00;;;7.90
67353;BMP180;54238;52.278;21.056;2024-02-26T01:45:31;99548.60;;;7.90
67353;BMP180;54238;52.278;21.056;2024-02-26T01:48:03;99545.40;;;7.80
67353;BMP180;54238;52.278;21.056;2024-02-26T01:50:37;99549.00;;;7.80
67353;BMP180;54238;52.278;21.056;2024-02-26T01:53:07;99545.60;;;7.80
67353;BMP180;54238;52.278;21.056;2024-02-26T01:55:37;99541.40;;;7.72
67353;BMP180;54238;52.278;21.056;2024-02-26T01:58:05;99538.80;;;7.70
67353;BMP180;54238;52.278;21.056;2024-02-26T02:00:37;99541.20;;;7.70
67353;BMP180;54238;52.278;21.056;2024-02-26T02:03:08;99537.60;;;7.70
67353;BMP180;54238;52.278;21.056;2024-02-26T02:05:38;99539.60;;;7.70
67353;BMP180;54238;52.278;21.056;2024-02-26T02:08:11;99533.60;;;7.70
67353;BMP180;54238;52.278;21.056;2024-02-26T02:10:38;99529.80;;;7.68
67353;BMP180;54238;52.278;21.056;2024-02-26T02:13:11;99529.00;;;7.64
67353;BMP180;54238;52.278;21.056;2024-02-26T02:15:40;99532.60;;;7.60
67353;BMP180;54238;52.278;21.056;2024-02-26T02:18:09;99536.40;;;7.60
67353;BMP180;54238;52.278;21.056;2024-02-26T02:20:38;99539.80;;;7.60
67353;BMP180;54238;52.278;21.056;2024-02-26T02:23:10;99537.40;;;7.60
67353;BMP180;54238;52.278;21.056;2024-02-26T02:25:38;99536.00;;;7.50
67353;BMP180;54238;52.278;21.056;2024-02-26T02:28:07;99541.00;;;7.50
67353;BMP180;54238;52.278;21.056;2024-02-26T02:30:37;99543.60;;;7.46
67353;BMP180;54238;52.278;21.056;2024-02-26T02:33:04;99546.80;;;7.40
67353;BMP180;54238;52.278;21.056;2024-02-26T02:35:34;99548.20;;;7.40
67353;BMP180;54238;52.278;21.056;2024-02-26T02:38:01;99555.80;;;7.30
67353;BMP180;54238;52.278;21.056;2024-02-26T02:40:30;99556.60;;;7.30
67353;BMP180;54238;52.278;21.056;2024-02-26T02:43:00;99556.60;;;7.30
67353;BMP180;54238;52.278;21.056;2024-02-26T02:45:31;99560.80;;;7.30
67353;BMP180;54238;52.278;21.056;2024-02-26T02:48:03;99551.40;;;7.28
67353;BMP180;54238;52.278;21.056;2024-02-26T02:50:32;99549.20;;;7.28
67353;BMP180;54238;52.278;21.056;2024-02-26T02:53:03;99549.00;;;7.26
67353;BMP180;54238;52.278;21.056;2024-02-26T02:55:37;99552.20;;;7.28
67353;BMP180;54238;52.278;21.056;2024-02-26T02:58:09;99548.20;;;7.30
67353;BMP180;54238;52.278;21.056;2024-02-26T03:00:38;99555.00;;;7.20
67353;BMP180;54238;52.278;21.056;2024-02-26T03:03:05;99559.40;;;7.20
67353;BMP180;54238;52.278;21.056;2024-02-26T03:05:33;99563.60;;;7.20
67353;BMP180;54238;52.278;21.056;2024-02-26T03:08:03;99565.60;;;7.20
67353;BMP180;54238;52.278;21.056;2024-02-26T03:10:33;99569.20;;;7.14
67353;BMP180;54238;52.278;21.056;2024-02-26T03:13:04;99572.60;;;7.10
67353;BMP180;54238;52.278;21.056;2024-02-26T03:15:31;99577.20;;;7.10
67353;BMP180;54238;52.278;21.056;2024-02-26T03:18:03;99576.60;;;7.08
67353;BMP180;54238;52.278;21.056;2024-02-26T03:20:32;99577.60;;;7.02
67353;BMP180;54238;52.278;21.056;2024-02-26T03:23:04;99582.80;;;7.00
67353;BMP180;54238;52.278;21.056;2024-02-26T03:25:33;99579.20;;;7.00
67353;BMP180;54238;52.278;21.056;2024-02-26T03:28:05;99578.80;;;7.00
67353;BMP180;54238;52.278;21.056;2024-02-26T03:30:35;99578.40;;;6.90
67353;BMP180;54238;52.278;21.056;2024-02-26T03:33:05;99576.60;;;6.90
67353;BMP180;54238;52.278;21.056;2024-02-26T03:35:34;99577.80;;;6.90
67353;BMP180;54238;52.278;21.056;2024-02-26T03:38:06;99577.00;;;6.90
67353;BMP180;54238;52.278;21.056;2024-02-26T03:40:38;99580.20;;;6.90
67353;BMP180;54238;52.278;21.056;2024-02-26T03:43:09;99583.20;;;6.90
67353;BMP180;54238;52.278;21.056;2024-02-26T03:45:42;99578.60;;;6.90
67353;BMP180;54238;52.278;21.056;2024-02-26T03:48:11;99579.80;;;6.90
67353;BMP180;54238;52.278;21.056;2024-02-26T03:50:40;99576.40;;;6.90
67353;BMP180;54238;52.278;21.056;2024-02-26T03:53:08;99579.20;;;6.90
67353;BMP180;54238;52.278;21.056;2024-02-26T03:55:38;99578.40;;;6.88
67353;BMP180;54238;52.278;21.056;2024-02-26T03:58:08;99580.60;;;6.80
67353;BMP180;54238;52.278;21.056;2024-02-26T04:00:36;99579.80;;;6.80
67353;BMP180;54238;52.278;21.056;2024-02-26T04:03:08;99578.80;;;6.80
67353;BMP180;54238;52.278;21.056;2024-02-26T04:05:35;99581.00;;;6.80
67353;BMP180;54238;52.278;21.056;2024-02-26T04:08:04;99577.80;;;6.80
67353;BMP180;54238;52.278;21.056;2024-02-26T04:10:34;99581.80;;;6.80
67353;BMP180;54238;52.278;21.056;2024-02-26T04:13:27;99582.20;;;6.80
67353;BMP180;54238;52.278;21.056;2024-02-26T04:15:54;99580.20;;;6.80
67353;BMP180;54238;52.278;21.056;2024-02-26T04:18:21;99576.80;;;6.80
67353;BMP180;54238;52.278;21.056;2024-02-26T04:20:51;99573.20;;;6.80
67353;BMP180;54238;52.278;21.056;2024-02-26T04:23:21;99571.40;;;6.80
67353;BMP180;54238;52.278;21.056;2024-02-26T04:25:51;99571.00;;;6.80
67353;BMP180;54238;52.278;21.056;2024-02-26T04:28:22;99567.60;;;6.80
67353;BMP180;54238;52.278;21.056;2024-02-26T04:30:52;99569.20;;;6.80
67353;BMP180;54238;52.278;21.056;2024-02-26T04:33:19;99570.00;;;6.80
67353;BMP180;54238;52.278;21.056;2024-02-26T04:35:49;99570.40;;;6.80
67353;BMP180;54238;52.278;21.056;2024-02-26T04:38:18;99568.20;;;6.78
67353;BMP180;54238;52.278;21.056;2024-02-26T04:40:45;99566.60;;;6.80
67353;BMP180;54238;52.278;21.056;2024-02-26T04:43:13;99568.00;;;6.80
67353;BMP180;54238;52.278;21.056;2024-02-26T04:45:45;99564.80;;;6.80
67353;BMP180;54238;52.278;21.056;2024-02-26T04:48:17;99564.20;;;6.80
67353;BMP180;54238;52.278;21.056;2024-02-26T04:50:44;99571.20;;;6.80
67353;BMP180;54238;52.278;21.056;2024-02-26T04:53:12;99572.60;;;6.80
67353;BMP180;54238;52.278;21.056;2024-02-26T04:55:41;99572.00;;;6.80
67353;BMP180;54238;52.278;21.056;2024-02-26T04:58:11;99573.40;;;6.76
67353;BMP180;54238;52.278;21.056;2024-02-26T05:00:40;99578.60;;;6.70
67353;BMP180;54238;52.278;21.056;2024-02-26T05:03:12;99573.80;;;6.70
67353;BMP180;54238;52.278;21.056;2024-02-26T05:05:40;99571.60;;;6.70
67353;BMP180;54238;52.278;21.056;2024-02-26T05:08:10;99573.40;;;6.70
67353;BMP180;54238;52.278;21.056;2024-02-26T05:10:39;99571.60;;;6.70
67353;BMP180;54238;52.278;21.056;2024-02-26T05:13:10;99574.80;;;6.70
67353;BMP180;54238;52.278;21.056;2024-02-26T05:15:39;99576.80;;;6.70
67353;BMP180;54238;52.278;21.056;2024-02-26T05:18:09;99582.20;;;6.62
67353;BMP180;54238;52.278;21.056;2024-02-26T05:20:36;99581.40;;;6.60
67353;BMP180;54238;52.278;21.056;2024-02-26T05:23:04;99578.80;;;6.60
67353;BMP180;54238;52.278;21.056;2024-02-26T05:25:35;99578.80;;;6.60
67353;BMP180;54238;52.278;21.056;2024-02-26T05:28:05;99582.80;;;6.60
67353;BMP180;54238;52.278;21.056;2024-02-26T05:30:32;99583.60;;;6.60
67353;BMP180;54238;52.278;21.056;2024-02-26T05:33:02;99588.20;;;6.62
67353;BMP180;54238;52.278;21.056;2024-02-26T05:35:31;99591.80;;;6.60
67353;BMP180;54238;52.278;21.056;2024-02-26T05:38:00;99595.80;;;6.70
67353;BMP180;54238;52.278;21.056;2024-02-26T05:40:32;99595.80;;;6.70
67353;BMP180;54238;52.278;21.056;2024-02-26T05:42:59;99601.80;;;6.70
67353;BMP180;54238;52.278;21.056;2024-02-26T05:45:28;99601.80;;;6.70
67353;BMP180;54238;52.278;21.056;2024-02-26T05:48:00;99601.20;;;6.80
67353;BMP180;54238;52.278;21.056;2024-02-26T05:50:28;99596.20;;;6.80
67353;BMP180;54238;52.278;21.056;2024-02-26T05:52:57;99603.00;;;6.82
67353;BMP180;54238;52.278;21.056;2024-02-26T05:55:26;99609.00;;;6.90
67353;BMP180;54238;52.278;21.056;2024-02-26T05:57:56;99606.00;;;6.90
67353;BMP180;54238;52.278;21.056;2024-02-26T06:00:26;99608.80;;;6.90
67353;BMP180;54238;52.278;21.056;2024-02-26T06:02:53;99609.20;;;6.90
67353;BMP180;54238;52.278;21.056;2024-02-26T06:05:20;99616.00;;;6.90
67353;BMP180;54238;52.278;21.056;2024-02-26T06:07:49;99619.80;;;6.90
67353;BMP180;54238;52.278;21.056;2024-02-26T06:10:17;99614.20;;;6.90
67353;BMP180;54238;52.278;21.056;2024-02-26T06:12:50;99622.00;;;6.90
67353;BMP180;54238;52.278;21.056;2024-02-26T06:15:24;99618.40;;;6.90
67353;BMP180;54238;52.278;21.056;2024-02-26T06:17:51;99616.00;;;6.90
67353;BMP180;54238;52.278;21.056;2024-02-26T06:20:18;99617.40;;;6.90
67353;BMP180;54238;52.278;21.056;2024-02-26T06:22:45;99621.20;;;7.00
67353;BMP180;54238;52.278;21.056;2024-02-26T06:25:12;99622.80;;;7.00
67353;BMP180;54238;52.278;21.056;2024-02-26T06:27:47;99619.20;;;7.00
67353;BMP180;54238;52.278;21.056;2024-02-26T06:30:14;99624.60;;;7.10
67353;BMP180;54238;52.278;21.056;2024-02-26T06:32:43;99624.00;;;7.10
67353;BMP180;54238;52.278;21.056;2024-02-26T06:35:12;99625.20;;;7.10
67353;BMP180;54238;52.278;21.056;2024-02-26T06:37:42;99622.60;;;7.20
67353;BMP180;54238;52.278;21.056;2024-02-26T06:40:11;99628.00;;;7.20
67353;BMP180;54238;52.278;21.056;2024-02-26T06:42:41;99632.00;;;7.20
67353;BMP180;54238;52.278;21.056;2024-02-26T06:45:10;99633.00;;;7.30
67353;BMP180;54238;52.278;21.056;2024-02-26T06:47:39;99637.80;;;7.30
67353;BMP180;54238;52.278;21.056;2024-02-26T06:50:07;99637.00;;;7.36
67353;BMP180;54238;52.278;21.056;2024-02-26T06:52:34;99632.00;;;7.40
67353;BMP180;54238;52.278;21.056;2024-02-26T06:55:04;99629.20;;;7.44
67353;BMP180;54238;52.278;21.056;2024-02-26T06:57:32;99627.40;;;7.50
67353;BMP180;54238;52.278;21.056;2024-02-26T07:00:01;99629.00;;;7.50
67353;BMP180;54238;52.278;21.056;2024-02-26T07:02:33;99629.60;;;7.54
67353;BMP180;54238;52.278;21.056;2024-02-26T07:05:05;99641.80;;;7.60
67353;BMP180;54238;52.278;21.056;2024-02-26T07:07:34;99639.00;;;7.70
67353;BMP180;54238;52.278;21.056;2024-02-26T07:10:04;99644.00;;;7.70
67353;BMP180;54238;52.278;21.056;2024-02-26T07:12:32;99645.60;;;7.70
67353;BMP180;54238;52.278;21.056;2024-02-26T07:15:00;99648.60;;;7.72
67353;BMP180;54238;52.278;21.056;2024-02-26T07:17:32;99648.00;;;7.72
67353;BMP180;54238;52.278;21.056;2024-02-26T07:20:03;99650.20;;;7.80
67353;BMP180;54238;52.278;21.056;2024-02-26T07:22:34;99649.40;;;7.80
67353;BMP180;54238;52.278;21.056;2024-02-26T07:25:06;99650.00;;;7.82
67353;BMP180;54238;52.278;21.056;2024-02-26T07:27:40;99658.40;;;7.90
67353;BMP180;54238;52.278;21.056;2024-02-26T07:30:13;99655.20;;;7.90
67353;BMP180;54238;52.278;21.056;2024-02-26T07:32:43;99657.00;;;8.00
67353;BMP180;54238;52.278;21.056;2024-02-26T07:35:12;99662.80;;;8.10
67353;BMP180;54238;52.278;21.056;2024-02-26T07:37:42;99663.80;;;8.12
67353;BMP180;54238;52.278;21.056;2024-02-26T07:40:11;99668.60;;;8.20
67353;BMP180;54238;52.278;21.056;2024-02-26T07:42:39;99663.40;;;8.38
67353;BMP180;54238;52.278;21.056;2024-02-26T07:45:15;99665.60;;;8.54
67353;BMP180;54238;52.278;21.056;2024-02-26T07:47:42;99668.60;;;8.80
67353;BMP180;54238;52.278;21.056;2024-02-26T07:50:15;99676.00;;;9.02
67353;BMP180;54238;52.278;21.056;2024-02-26T07:52:44;99676.20;;;9.28
67353;BMP180;54238;52.278;21.056;2024-02-26T07:55:13;99674.80;;;9.50
67353;BMP180;54238;52.278;21.056;2024-02-26T07:57:43;99681.80;;;9.72
67353;BMP180;54238;52.278;21.056;2024-02-26T08:00:23;99680.80;;;10.00
67353;BMP180;54238;52.278;21.056;2024-02-26T08:02:57;99678.40;;;10.20
67353;BMP180;54238;52.278;21.056;2024-02-26T08:05:27;99678.00;;;10.40
67353;BMP180;54238;52.278;21.056;2024-02-26T08:07:58;99682.80;;;10.60
67353;BMP180;54238;52.278;21.056;2024-02-26T08:10:28;99683.40;;;10.70
67353;BMP180;54238;52.278;21.056;2024-02-26T08:13:02;99685.40;;;10.90
67353;BMP180;54238;52.278;21.056;2024-02-26T08:15:35;99686.20;;;11.08
67353;BMP180;54238;52.278;21.056;2024-02-26T08:18:09;99690.60;;;11.20
67353;BMP180;54238;52.278;21.056;2024-02-26T08:20:39;99688.60;;;11.40
67353;BMP180;54238;52.278;21.056;2024-02-26T08:23:08;99689.40;;;11.50
67353;BMP180;54238;52.278;21.056;2024-02-26T08:25:37;99695.60;;;11.70
67353;BMP180;54238;52.278;21.056;2024-02-26T08:28:04;99692.80;;;11.88
67353;BMP180;54238;52.278;21.056;2024-02-26T08:30:34;99692.00;;;12.06
67353;BMP180;54238;52.278;21.056;2024-02-26T08:33:03;99702.80;;;12.22
67353;BMP180;54238;52.278;21.056;2024-02-26T08:35:35;99700.60;;;12.30
67353;BMP180;54238;52.278;21.056;2024-02-26T08:38:05;99700.80;;;12.42
67353;BMP180;54238;52.278;21.056;2024-02-26T08:40:36;99705.00;;;12.58
67353;BMP180;54238;52.278;21.056;2024-02-26T08:43:06;99708.00;;;12.70
67353;BMP180;54238;52.278;21.056;2024-02-26T08:45:33;99705.80;;;12.90
67353;BMP180;54238;52.278;21.056;2024-02-26T08:48:02;99706.00;;;13.10
67353;BMP180;54238;52.278;21.056;2024-02-26T08:50:32;99710.80;;;13.20
67353;BMP180;54238;52.278;21.056;2024-02-26T08:52:59;99714.80;;;13.32
67353;BMP180;54238;52.278;21.056;2024-02-26T08:55:30;99712.80;;;13.54
67353;BMP180;54238;52.278;21.056;2024-02-26T08:58:02;99711.40;;;13.70
67353;BMP180;54238;52.278;21.056;2024-02-26T09:00:32;99713.00;;;14.00
67353;BMP180;54238;52.278;21.056;2024-02-26T09:02:59;99714.00;;;14.20
67353;BMP180;54238;52.278;21.056;2024-02-26T09:05:26;99711.60;;;14.48
67353;BMP180;54238;52.278;21.056;2024-02-26T09:07:55;99709.80;;;14.72
67353;BMP180;54238;52.278;21.056;2024-02-26T09:10:22;99717.20;;;14.90
67353;BMP180;54238;52.278;21.056;2024-02-26T09:12:49;99717.00;;;15.00
67353;BMP180;54238;52.278;21.056;2024-02-26T09:15:16;99719.00;;;15.20
67353;BMP180;54238;52.278;21.056;2024-02-26T09:17:43;99726.20;;;15.30
67353;BMP180;54238;52.278;21.056;2024-02-26T09:20:14;99726.00;;;15.30
67353;BMP180;54238;52.278;21.056;2024-02-26T09:22:41;99728.60;;;15.22
67353;BMP180;54238;52.278;21.056;2024-02-26T09:25:11;99728.60;;;15.30
67353;BMP180;54238;52.278;21.056;2024-02-26T09:27:37;99730.80;;;15.50
67353;BMP180;54238;52.278;21.056;2024-02-26T09:30:08;99734.80;;;15.70
67353;BMP180;54238;52.278;21.056;2024-02-26T09:32:37;99733.00;;;15.80
67353;BMP180;54238;52.278;21.056;2024-02-26T09:35:09;99736.40;;;15.80
67353;BMP180;54238;52.278;21.056;2024-02-26T09:37:40;99736.20;;;15.70
67353;BMP180;54238;52.278;21.056;2024-02-26T09:40:07;99742.80;;;15.66
67353;BMP180;54238;52.278;21.056;2024-02-26T09:42:37;99734.40;;;15.60
67353;BMP180;54238;52.278;21.056;2024-02-26T09:45:22;99732.80;;;15.80
67353;BMP180;54238;52.278;21.056;2024-02-26T09:47:51;99739.00;;;15.80
67353;BMP180;54238;52.278;21.056;2024-02-26T09:50:22;99737.60;;;15.60
67353;BMP180;54238;52.278;21.056;2024-02-26T09:52:54;99738.20;;;15.50
67353;BMP180;54238;52.278;21.056;2024-02-26T09:55:24;99743.00;;;15.30
67353;BMP180;54238;52.278;21.056;2024-02-26T09:57:59;99747.20;;;15.20
67353;BMP180;54238;52.278;21.056;2024-02-26T10:00:35;99745.60;;;15.18
67353;BMP180;54238;52.278;21.056;2024-02-26T10:03:09;99751.40;;;15.10
67353;BMP180;54238;52.278;21.056;2024-02-26T10:05:43;99754.80;;;15.00
67353;BMP180;54238;52.278;21.056;2024-02-26T10:08:18;99758.80;;;14.80
67353;BMP180;54238;52.278;21.056;2024-02-26T10:10:49;99761.80;;;14.60
67353;BMP180;54238;52.278;21.056;2024-02-26T10:13:17;99761.80;;;14.40
67353;BMP180;54238;52.278;21.056;2024-02-26T10:15:44;99765.60;;;14.20
67353;BMP180;54238;52.278;21.056;2024-02-26T10:18:15;99762.60;;;13.90
67353;BMP180;54238;52.278;21.056;2024-02-26T10:21:03;99764.60;;;13.72
67353;BMP180;54238;52.278;21.056;2024-02-26T10:23:30;99763.60;;;13.50
67353;BMP180;54238;52.278;21.056;2024-02-26T10:26:03;99760.40;;;13.40
67353;BMP180;54238;52.278;21.056;2024-02-26T10:28:31;99763.80;;;13.24
67353;BMP180;54238;52.278;21.056;2024-02-26T10:31:00;99761.40;;;13.10
67353;BMP180;54238;52.278;21.056;2024-02-26T10:33:30;99761.40;;;13.02
67353;BMP180;54238;52.278;21.056;2024-02-26T10:35:58;99765.60;;;12.90
67353;BMP180;54238;52.278;21.056;2024-02-26T10:38:28;99768.20;;;12.80
67353;BMP180;54238;52.278;21.056;2024-02-26T10:40:58;99762.40;;;12.70
67353;BMP180;54238;52.278;21.056;2024-02-26T10:43:25;99761.40;;;12.70
67353;BMP180;54238;52.278;21.056;2024-02-26T10:45:55;99765.20;;;12.80
67353;BMP180;54238;52.278;21.056;2024-02-26T10:48:22;99762.40;;;12.80
67353;BMP180;54238;52.278;21.056;2024-02-26T10:50:52;99758.80;;;12.82
67353;BMP180;54238;52.278;21.056;2024-02-26T10:53:21;99764.20;;;12.80
67353;BMP180;54238;52.278;21.056;2024-02-26T10:55:57;99762.80;;;12.70
67353;BMP180;54238;52.278;21.056;2024-02-26T10:58:28;99763.60;;;12.70
67353;BMP180;54238;52.278;21.056;2024-02-26T11:00:57;99761.60;;;12.60
67353;BMP180;54238;52.278;21.056;2024-02-26T11:03:32;99761.60;;;12.60
67353;BMP180;54238;52.278;21.056;2024-02-26T11:06:04;99756.80;;;12.60
67353;BMP180;54238;52.278;21.056;2024-02-26T11:08:36;99750.60;;;12.70
67353;BMP180;54238;52.278;21.056;2024-02-26T11:11:05;99752.00;;;12.82
67353;BMP180;54238;52.278;21.056;2024-02-26T11:13:35;99746.00;;;13.28
67353;BMP180;54238;52.278;21.056;2024-02-26T11:16:06;99740.80;;;14.02
67353;BMP180;54238;52.278;21.056;2024-02-26T11:18:42;99744.00;;;14.98
67353;BMP180;54238;52.278;21.056;2024-02-26T11:21:13;99733.80;;;15.56
67353;BMP180;54238;52.278;21.056;2024-02-26T11:23:42;99736.40;;;16.74
67353;BMP180;54238;52.278;21.056;2024-02-26T11:26:13;99739.60;;;17.92
67353;BMP180;54238;52.278;21.056;2024-02-26T11:28:44;99741.80;;;19.04
67353;BMP180;54238;52.278;21.056;2024-02-26T11:31:14;99744.80;;;20.04
67353;BMP180;54238;52.278;21.056;2024-02-26T11:33:46;99754.80;;;20.80
67353;BMP180;54238;52.278;21.056;2024-02-26T11:36:20;99749.60;;;21.10
67353;BMP180;54238;52.278;21.056;2024-02-26T11:38:52;99754.20;;;21.62
67353;BMP180;54238;52.278;21.056;2024-02-26T11:41:22;99750.80;;;22.10
67353;BMP180;54238;52.278;21.056;2024-02-26T11:44:01;99757.80;;;22.62
67353;BMP180;54238;52.278;21.056;2024-02-26T11:46:40;99746.60;;;23.00
67353;BMP180;54238;52.278;21.056;2024-02-26T11:51:58;99752.00;;;23.20
67353;BMP180;54238;52.278;21.056;2024-02-26T11:54:49;99751.80;;;22.64
67353;BMP180;54238;52.278;21.056;2024-02-26T12:00:10;99746.60;;;21.80
67353;BMP180;54238;52.278;21.056;2024-02-26T12:05:20;99745.20;;;22.32
67353;BMP180;54238;52.278;21.056;2024-02-26T12:08:01;99741.40;;;22.74
67353;BMP180;54238;52.278;21.056;2024-02-26T12:10:38;99747.20;;;23.34
67353;BMP180;54238;52.278;21.056;2024-02-26T12:13:14;99743.60;;;23.86
67353;BMP180;54238;52.278;21.056;2024-02-26T12:15:54;99745.20;;;24.70
67353;BMP180;54238;52.278;21.056;2024-02-26T12:18:22;99744.20;;;25.36
67353;BMP180;54238;52.278;21.056;2024-02-26T12:21:02;99758.60;;;25.80
67353;BMP180;54238;52.278;21.056;2024-02-26T12:23:30;99755.60;;;25.60
67353;BMP180;54238;52.278;21.056;2024-02-26T12:26:01;99748.60;;;25.94
67353;BMP180;54238;52.278;21.056;2024-02-26T12:28:31;99749.60;;;26.40
67353;BMP180;54238;52.278;21.056;2024-02-26T12:30:58;99752.60;;;26.98
67353;BMP180;54238;52.278;21.056;2024-02-26T12:33:29;99754.80;;;27.20
67353;BMP180;54238;52.278;21.056;2024-02-26T12:35:59;99757.60;;;27.60
67353;BMP180;54238;52.278;21.056;2024-02-26T12:38:31;99753.60;;;28.10
67353;BMP180;54238;52.278;21.056;2024-02-26T12:40:59;99758.80;;;28.54
67353;BMP180;54238;52.278;21.056;2024-02-26T12:43:26;99758.40;;;28.80
67353;BMP180;54238;52.278;21.056;2024-02-26T12:45:56;99759.80;;;28.80
67353;BMP180;54238;52.278;21.056;2024-02-26T12:48:23;99759.00;;;28.80
67353;BMP180;54238;52.278;21.056;2024-02-26T12:50:52;99759.60;;;28.80
67353;BMP180;54238;52.278;21.056;2024-02-26T12:53:19;99760.20;;;28.80
67353;BMP180;54238;52.278;21.056;2024-02-26T12:55:49;99761.80;;;28.70
67353;BMP180;54238;52.278;21.056;2024-02-26T12:58:17;99760.80;;;28.70
67353;BMP180;54238;52.278;21.056;2024-02-26T13:00:47;99762.20;;;28.96
67353;BMP180;54238;52.278;21.056;2024-02-26T13:03:18;99761.00;;;29.06
67353;BMP180;54238;52.278;21.056;2024-02-26T13:05:50;99764.80;;;29.10
67353;BMP180;54238;52.278;21.056;2024-02-26T13:08:26;99769.00;;;29.40
67353;BMP180;54238;52.278;21.056;2024-02-26T13:10:55;99766.20;;;29.70
67353;BMP180;54238;52.278;21.056;2024-02-26T13:13:27;99769.80;;;30.20
67353;BMP180;54238;52.278;21.056;2024-02-26T13:16:02;99772.00;;;30.28
67353;BMP180;54238;52.278;21.056;2024-02-26T13:18:31;99766.80;;;30.22
67353;BMP180;54238;52.278;21.056;2024-02-26T13:21:11;99769.40;;;30.68
67353;BMP180;54238;52.278;21.056;2024-02-26T13:23:42;99763.00;;;31.18
67353;BMP180;54238;52.278;21.056;2024-02-26T13:26:13;99764.80;;;31.40
67353;BMP180;54238;52.278;21.056;2024-02-26T13:28:47;99764.60;;;31.50
67353;BMP180;54238;52.278;21.056;2024-02-26T13:31:17;99758.80;;;31.60
67353;BMP180;54238;52.278;21.056;2024-02-26T13:33:46;99760.80;;;31.46
67353;BMP180;54238;52.278;21.056;2024-02-26T13:36:15;99762.20;;;31.50
67353;BMP180;54238;52.278;21.056;2024-02-26T13:38:52;99764.80;;;31.50
67353;BMP180;54238;52.278;21.056;2024-02-26T13:41:20;99771.80;;;31.70
67353;BMP180;54238;52.278;21.056;2024-02-26T13:43:50;99778.60;;;31.84
67353;BMP180;54238;52.278;21.056;2024-02-26T13:46:20;99784.20;;;31.80
67353;BMP180;54238;52.278;21.056;2024-02-26T13:48:47;99782.60;;;31.36
67353;BMP180;54238;52.278;21.056;2024-02-26T13:51:14;99782.00;;;30.90
67353;BMP180;54238;52.278;21.056;2024-02-26T13:53:44;99781.40;;;30.70
67353;BMP180;54238;52.278;21.056;2024-02-26T13:56:15;99782.40;;;30.48
67353;BMP180;54238;52.278;21.056;2024-02-26T13:58:43;99783.60;;;30.36
67353;BMP180;54238;52.278;21.056;2024-02-26T14:01:10;99779.80;;;30.38
67353;BMP180;54238;52.278;21.056;2024-02-26T14:03:39;99773.00;;;30.54
67353;BMP180;54238;52.278;21.056;2024-02-26T14:06:09;99766.80;;;30.70
67353;BMP180;54238;52.278;21.056;2024-02-26T14:08:36;99761.00;;;30.70
67353;BMP180;54238;52.278;21.056;2024-02-26T14:11:03;99761.00;;;30.72
67353;BMP180;54238;52.278;21.056;2024-02-26T14:13:30;99759.80;;;30.62
67353;BMP180;54238;52.278;21.056;2024-02-26T14:15:58;99764.40;;;30.30
67353;BMP180;54238;52.278;21.056;2024-02-26T14:18:25;99770.60;;;29.96
67353;BMP180;54238;52.278;21.056;2024-02-26T14:20:54;99770.60;;;29.32
67353;BMP180;54238;52.278;21.056;2024-02-26T14:23:21;99766.00;;;28.78
67353;BMP180;54238;52.278;21.056;2024-02-26T14:25:48;99764.40;;;28.28
67353;BMP180;54238;52.278;21.056;2024-02-26T14:28:15;99764.80;;;27.90